Time;durP1;ratioP1;P1;durP2;ratioP2;P2;SDS_P1;SDS_P2;PMS_P1;PMS_P2;Temp;Humidity;BMP_temperature;BMP_pressure;BME280_temperature;BME280_humidity;BME280_pressure;Samples;Min_cycle;Max_cycle;Signal;HPM_P1;HPM_P2
2023/03/20 00:00:49;;;;;;;7.83;7.13;;;9.40;99.90;;;;;;6207728;23;20176;-80
2023/03/20 00:03:15;;;;;;;7.53;6.83;;;9.40;99.90;;;;;;6207794;23;20161;-80
2023/03/20 00:05:41;;;;;;;8.40;7.60;;;9.40;99.90;;;;;;6235079;23;20207;-80
2023/03/20 00:08:07;;;;;;;8.50;7.70;;;9.30;99.90;;;;;;6207905;23;20203;-80
2023/03/20 00:10:40;;;;;;;10.47;9.30;;;9.30;99.90;;;;;;6208086;23;20172;-80
2023/03/20 00:13:09;;;;;;;17.80;13.17;;;9.30;99.90;;;;;;6207814;23;20158;-80
2023/03/20 00:15:41;;;;;;;13.07;11.53;;;9.30;99.90;;;;;;6207826;23;20157;-80
2023/03/20 00:18:19;;;;;;;11.73;8.90;;;9.30;1.00;;;;;;6208185;23;20153;-80
2023/03/20 00:20:52;;;;;;;8.87;7.97;;;9.30;1.00;;;;;;6234609;23;20146;-81
2023/03/20 00:23:18;;;;;;;8.57;7.57;;;9.30;1.00;;;;;;6234252;23;20199;-79
2023/03/20 00:25:45;;;;;;;7.43;6.73;;;9.40;1.00;;;;;;6207595;23;20165;-80
2023/03/20 00:28:33;;;;;;;8.73;7.23;;;9.40;1.00;;;;;;6207742;23;20181;-81
2023/03/20 00:30:59;;;;;;;7.57;6.70;;;9.40;1.00;;;;;;6207859;23;20629;-80
2023/03/20 00:33:25;;;;;;;6.83;6.20;;;9.30;1.00;;;;;;6234387;23;20165;-80
2023/03/20 00:35:51;;;;;;;6.67;5.80;;;9.40;1.00;;;;;;6235396;23;20153;-80
2023/03/20 00:38:17;;;;;;;6.90;6.20;;;9.40;1.00;;;;;;6207962;23;20176;-80
2023/03/20 00:40:43;;;;;;;6.20;5.70;;;9.30;1.00;;;;;;6207950;23;20858;-80
2023/03/20 00:43:11;;;;;;;5.90;5.50;;;9.30;1.00;;;;;;6207998;23;20165;-80
2023/03/20 00:45:37;;;;;;;6.20;5.60;;;9.30;1.00;;;;;;6207841;23;20168;-80
2023/03/20 00:48:03;;;;;;;6.10;5.50;;;9.30;1.00;;;;;;6207758;23;20539;-80
2023/03/20 00:50:29;;;;;;;6.30;5.40;;;9.30;1.00;;;;;;6208032;23;20509;-80
2023/03/20 00:52:57;;;;;;;6.10;5.60;;;9.30;99.90;;;;;;6234554;23;20154;-80
2023/03/20 00:55:26;;;;;;;6.10;5.17;;;9.30;99.90;;;;;;6234991;23;20157;-80
2023/03/20 00:57:55;;;;;;;6.87;6.00;;;9.30;99.90;;;;;;6207972;23;20208;-80
2023/03/20 01:00:35;;;;;;;6.07;5.27;;;9.20;99.90;;;;;;6207807;23;20168;-80
2023/03/20 01:03:09;;;;;;;5.63;5.17;;;9.20;99.90;;;;;;6235122;23;20195;-81
2023/03/20 01:05:35;;;;;;;5.97;5.47;;;9.20;99.90;;;;;;6207882;23;20160;-80
2023/03/20 01:08:00;;;;;;;6.63;5.90;;;9.20;99.90;;;;;;6235270;23;20182;-80
2023/03/20 01:10:30;;;;;;;6.47;5.87;;;9.20;99.90;;;;;;6234221;23;20158;-80
2023/03/20 01:13:01;;;;;;;5.70;5.20;;;9.10;99.90;;;;;;6234415;23;20153;-80
2023/03/20 01:15:30;;;;;;;6.43;5.80;;;9.10;99.90;;;;;;6235000;23;20150;-80
2023/03/20 01:17:56;;;;;;;6.97;5.90;;;9.10;99.90;;;;;;6208444;23;20173;-80
2023/03/20 01:20:29;;;;;;;6.43;5.83;;;9.10;99.90;;;;;;6235454;23;20158;-80
2023/03/20 01:22:55;;;;;;;6.87;6.03;;;9.10;1.00;;;;;;6207601;23;20174;-80
2023/03/20 01:25:21;;;;;;;6.63;5.47;;;9.10;1.00;;;;;;6235393;23;20563;-80
2023/03/20 01:27:51;;;;;;;5.57;5.07;;;9.20;1.00;;;;;;6234706;23;20567;-80
2023/03/20 01:30:23;;;;;;;6.33;5.30;;;8.90;1.00;;;;;;6234807;23;20140;-80
2023/03/20 01:32:49;;;;;;;6.17;5.60;;;9.20;1.00;;;;;;6234496;23;20225;-80
2023/03/20 01:35:17;;;;;;;6.47;5.47;;;9.30;1.00;;;;;;6207686;23;20547;-80
2023/03/20 01:37:43;;;;;;;6.03;5.43;;;9.30;1.00;;;;;;6207937;23;20158;-80
2023/03/20 01:40:42;;;;;;;7.67;5.50;;;9.20;99.90;;;;;;6207689;23;20162;-80
2023/03/20 01:43:17;;;;;;;5.80;5.20;;;9.20;41.10;;;;;;6207473;23;20154;-80
2023/03/20 01:46:03;;;;;;;6.03;5.53;;;9.10;91.30;;;;;;6207787;23;20157;-80
2023/03/20 01:48:56;;;;;;;7.53;5.63;;;9.10;99.90;;;;;;6207925;23;20174;-80
2023/03/20 01:51:34;;;;;;;11.10;9.60;;;9.10;99.90;;;;;;6233408;23;20459;-80
2023/03/20 01:54:11;;;;;;;11.30;8.90;;;9.20;1.00;;;;;;6207287;23;20181;-80
2023/03/20 01:56:46;;;;;;;16.73;12.50;;;9.10;1.00;;;;;;6233643;23;20142;-80
2023/03/20 01:59:43;;;;;;;14.27;10.57;;;9.20;1.00;;;;;;6207212;23;20146;-80
2023/03/20 02:02:10;;;;;;;14.73;11.83;;;9.20;1.00;;;;;;6156085;23;20540;-80
2023/03/20 02:04:40;;;;;;;15.70;13.07;;;9.20;1.00;;;;;;6234903;23;20177;-79
2023/03/20 02:07:08;;;;;;;17.43;15.53;;;9.30;12.20;;;;;;6235058;23;20146;-81
2023/03/20 02:09:34;;;;;;;17.80;15.83;;;9.30;23.30;;;;;;6235029;23;20177;-80
2023/03/20 02:12:01;;;;;;;27.10;20.70;;;9.30;1.00;;;;;;6207493;23;20181;-80
2023/03/20 02:14:27;;;;;;;27.23;20.50;;;9.90;17.80;;;;;;6207554;23;20649;-79
2023/03/20 02:16:53;;;;;;;29.20;23.80;;;9.40;1.00;;;;;;6234703;23;20153;-80
2023/03/20 02:19:41;;;;;;;34.63;25.90;;;9.50;1.00;;;;;;6207567;23;20193;-80
2023/03/20 02:22:35;;;;;;;34.60;26.37;;;9.50;1.00;;;;;;6208377;23;20733;-80
2023/03/20 02:25:22;;;;;;;33.47;26.00;;;9.50;99.90;;;;;;6209149;23;20177;-81
2023/03/20 02:28:37;;;;;;;37.97;27.87;;;9.50;99.90;;;;;;6209655;23;20177;-80
2023/03/20 02:31:31;;;;;;;39.07;29.47;;;9.50;99.90;;;;;;6124124;23;20679;-80
2023/03/20 02:34:20;;;;;;;37.97;28.97;;;9.50;99.90;;;;;;6236584;23;20204;-80
2023/03/20 02:37:16;;;;;;;36.40;27.17;;;9.50;99.90;;;;;;6236397;23;20594;-80
2023/03/20 02:39:55;;;;;;;36.57;28.63;;;9.60;72.60;;;;;;6236197;23;20138;-81
2023/03/20 02:42:47;;;;;;;38.87;30.17;;;9.50;1.00;;;;;;6235724;23;20640;-80
2023/03/20 02:45:49;;;;;;;39.90;31.33;;;9.50;1.00;;;;;;6209242;23;20181;-79
2023/03/20 02:48:26;;;;;;;43.50;32.47;;;9.50;99.90;;;;;;6215430;23;20208;-79
2023/03/20 02:51:43;;;;;;;47.00;31.93;;;9.40;1.00;;;;;;6236069;23;20441;-80
2023/03/20 02:54:24;;;;;;;46.33;30.20;;;9.40;99.90;;;;;;6152421;23;20524;-80
2023/03/20 02:57:05;;;;;;;43.47;30.23;;;9.30;1.00;;;;;;6208922;23;20295;-79
2023/03/20 02:59:44;;;;;;;46.17;32.17;;;9.30;99.90;;;;;;6209071;23;20154;-80
2023/03/20 03:02:22;;;;;;;49.03;31.87;;;9.20;1.00;;;;;;6209005;23;20235;-79
2023/03/20 03:04:58;;;;;;;49.30;32.03;;;9.10;1.00;;;;;;6208245;23;20203;-80
2023/03/20 03:07:27;;;;;;;50.03;32.43;;;9.00;1.00;;;;;;6235776;23;20141;-80
2023/03/20 03:09:58;;;;;;;47.83;32.17;;;9.00;99.90;;;;;;6235598;23;20181;-80
2023/03/20 03:12:30;;;;;;;54.80;33.27;;;9.00;1.00;;;;;;6209087;23;20466;-81
2023/03/20 03:15:00;;;;;;;55.23;33.63;;;8.90;3.40;;;;;;6208091;23;20657;-80
2023/03/20 03:17:31;;;;;;;53.47;34.27;;;8.90;99.90;;;;;;6208559;23;20161;-80
2023/03/20 03:20:01;;;;;;;54.00;33.97;;;8.90;1.00;;;;;;6235375;23;20394;-80
2023/03/20 03:22:27;;;;;;;57.20;34.20;;;9.00;1.00;;;;;;6235191;23;20414;-80
2023/03/20 03:24:54;;;;;;;54.67;32.90;;;9.00;1.00;;;;;;6235375;23;20252;-80
2023/03/20 03:27:26;;;;;;;52.03;34.30;;;9.00;1.00;;;;;;6235911;23;20154;-80
2023/03/20 03:29:57;;;;;;;53.43;34.80;;;9.10;1.00;;;;;;6208413;23;20190;-81
2023/03/20 03:32:32;;;;;;;57.30;34.60;;;9.10;99.90;;;;;;6208441;23;20149;-80
2023/03/20 03:34:59;;;;;;;62.10;34.93;;;9.10;99.90;;;;;;6234606;23;20228;-80
2023/03/20 03:37:38;;;;;;;58.53;36.53;;;9.10;99.90;;;;;;6235154;23;20200;-80
2023/03/20 03:40:26;;;;;;;64.57;36.73;;;9.00;99.90;;;;;;6208269;23;20158;-80
2023/03/20 03:43:03;;;;;;;59.40;35.13;;;9.00;99.90;;;;;;6235149;23;20141;-80
2023/03/20 03:45:37;;;;;;;62.10;35.37;;;9.10;99.90;;;;;;6208673;23;20157;-79
2023/03/20 03:48:10;;;;;;;60.93;37.10;;;9.10;99.90;;;;;;6208180;23;20181;-80
2023/03/20 03:50:48;;;;;;;60.77;36.10;;;9.00;1.00;;;;;;6234604;23;20146;-80
2023/03/20 03:53:19;;;;;;;62.43;36.77;;;9.00;1.00;;;;;;6207727;23;20468;-80
2023/03/20 03:55:51;;;;;;;64.90;36.67;;;9.10;1.00;;;;;;6234885;23;20134;-80
2023/03/20 03:58:31;;;;;;;65.97;36.50;;;9.00;1.00;;;;;;6235815;23;20161;-80
2023/03/20 04:01:00;;;;;;;67.03;36.73;;;9.00;1.00;;;;;;6208686;23;20211;-80
2023/03/20 04:03:31;;;;;;;64.10;36.87;;;9.00;1.00;;;;;;6208214;23;20192;-80
2023/03/20 04:05:58;;;;;;;66.37;36.93;;;9.00;1.00;;;;;;6208527;23;20173;-80
2023/03/20 04:08:24;;;;;;;66.00;37.90;;;9.10;1.00;;;;;;6207896;23;20212;-80
2023/03/20 04:10:50;;;;;;;65.13;36.90;;;9.10;1.00;;;;;;6235186;23;20583;-80
2023/03/20 04:13:16;;;;;;;61.10;35.57;;;9.10;1.00;;;;;;6208265;23;20180;-81
2023/03/20 04:15:42;;;;;;;69.50;37.47;;;9.00;1.00;;;;;;6235294;23;20160;-80
2023/03/20 04:18:15;;;;;;;73.30;38.40;;;9.00;1.00;;;;;;6208467;23;20161;-80
2023/03/20 04:20:41;;;;;;;67.27;37.20;;;9.00;1.00;;;;;;6208161;23;20154;-80
2023/03/20 04:23:07;;;;;;;69.57;38.57;;;9.00;1.00;;;;;;6234684;23;20632;-80
2023/03/20 04:25:32;;;;;;;66.87;37.97;;;9.00;20.00;;;;;;6208197;23;20243;-80
2023/03/20 04:27:58;;;;;;;66.63;36.67;;;9.00;35.40;;;;;;6208178;23;20252;-81
2023/03/20 04:30:23;;;;;;;65.53;35.00;;;9.00;31.30;;;;;;6208330;23;20624;-80
2023/03/20 04:32:49;;;;;;;60.17;34.70;;;9.00;1.00;;;;;;6208083;23;20240;-80
2023/03/20 04:35:15;;;;;;;59.87;33.93;;;9.00;1.00;;;;;;6208269;23;20192;-80
2023/03/20 04:37:40;;;;;;;61.53;33.37;;;9.00;1.00;;;;;;6235607;23;20154;-80
2023/03/20 04:40:06;;;;;;;56.20;32.70;;;9.00;99.90;;;;;;6208013;23;20350;-80
2023/03/20 04:42:32;;;;;;;58.47;33.17;;;8.90;92.30;;;;;;6235641;23;20146;-80
2023/03/20 04:44:58;;;;;;;58.10;32.90;;;8.90;95.30;;;;;;6207755;23;20178;-80
2023/03/20 04:47:23;;;;;;;54.27;31.23;;;8.90;1.00;;;;;;6208306;23;20161;-80
2023/03/20 04:49:50;;;;;;;55.47;31.13;;;8.90;1.00;;;;;;6208280;23;20268;-81
2023/03/20 04:52:16;;;;;;;54.17;30.67;;;8.80;99.90;;;;;;6207922;23;20215;-81
2023/03/20 04:54:41;;;;;;;54.60;30.50;;;8.80;99.90;;;;;;6235374;23;20245;-81
2023/03/20 04:57:07;;;;;;;56.03;30.70;;;8.80;99.90;;;;;;6235034;23;20597;-80
2023/03/20 04:59:33;;;;;;;57.00;29.80;;;8.80;52.80;;;;;;6235144;23;20208;-80
2023/03/20 05:01:58;;;;;;;53.97;29.63;;;8.70;1.00;;;;;;6207675;23;20593;-80
2023/03/20 05:04:24;;;;;;;49.03;27.80;;;8.70;1.00;;;;;;6208421;23;20185;-80
2023/03/20 05:06:50;;;;;;;51.30;29.27;;;8.60;1.00;;;;;;6234911;23;20149;-80
2023/03/20 05:09:16;;;;;;;51.00;27.47;;;8.50;99.90;;;;;;6208770;23;20184;-80
2023/03/20 05:11:42;;;;;;;53.27;29.70;;;8.40;99.90;;;;;;6235059;23;20675;-81
2023/03/20 05:14:08;;;;;;;52.17;28.10;;;8.40;99.90;;;;;;6207884;23;20256;-80
2023/03/20 05:16:33;;;;;;;55.00;30.10;;;8.30;1.00;;;;;;6235404;23;20149;-80
2023/03/20 05:18:59;;;;;;;51.57;27.40;;;8.30;99.90;;;;;;6234872;23;20645;-80
2023/03/20 05:21:24;;;;;;;48.27;27.37;;;8.30;99.90;;;;;;6208224;23;20179;-80
2023/03/20 05:23:50;;;;;;;46.87;26.53;;;8.20;1.00;;;;;;6234597;23;20193;-80
2023/03/20 05:26:16;;;;;;;49.07;26.33;;;8.30;1.00;;;;;;6234865;23;20157;-81
2023/03/20 05:28:41;;;;;;;49.23;27.53;;;8.30;1.00;;;;;;6234565;23;20177;-80
2023/03/20 05:31:07;;;;;;;48.73;27.40;;;8.30;1.00;;;;;;6207998;23;20168;-80
2023/03/20 05:33:33;;;;;;;48.13;27.13;;;8.40;99.90;;;;;;6207425;23;20177;-80
2023/03/20 05:35:58;;;;;;;49.80;27.63;;;8.40;99.90;;;;;;6207982;23;20208;-80
2023/03/20 05:38:25;;;;;;;44.03;25.57;;;8.50;99.90;;;;;;6207691;23;20166;-80
2023/03/20 05:40:56;;;;;;;46.23;26.73;;;8.50;99.90;;;;;;6207996;23;20609;-81
2023/03/20 05:43:21;;;;;;;42.57;26.07;;;8.60;1.00;;;;;;6208382;23;20188;-80
2023/03/20 05:45:47;;;;;;;44.20;25.87;;;8.70;1.00;;;;;;6208282;23;20165;-80
2023/03/20 05:48:13;;;;;;;39.47;24.33;;;8.70;26.20;;;;;;6235932;23;20256;-80
2023/03/20 05:50:38;;;;;;;39.97;23.63;;;8.70;99.90;;;;;;6209424;23;20146;-81
2023/03/20 05:53:05;;;;;;;39.57;24.23;;;8.80;99.90;;;;;;6207611;23;20164;-79
2023/03/20 05:55:31;;;;;;;38.03;23.17;;;8.80;99.90;;;;;;6210734;23;20501;-81
2023/03/20 05:57:57;;;;;;;37.37;24.37;;;8.80;23.60;;;;;;6211946;23;20162;-81
2023/03/20 06:00:23;;;;;;;35.10;21.93;;;8.80;1.00;;;;;;6212788;23;20180;-80
2023/03/20 06:02:49;;;;;;;36.53;23.50;;;8.80;1.00;;;;;;6239565;23;20192;-80
2023/03/20 06:05:14;;;;;;;35.50;22.13;;;8.90;1.00;;;;;;6212634;23;20181;-80
2023/03/20 06:07:40;;;;;;;32.53;21.63;;;8.90;1.00;;;;;;6239879;23;20204;-80
2023/03/20 06:10:06;;;;;;;35.77;23.80;;;8.90;1.00;;;;;;6212476;23;20161;-79
2023/03/20 06:12:32;;;;;;;35.17;22.23;;;9.00;99.90;;;;;;6239348;23;20161;-80
2023/03/20 06:14:57;;;;;;;36.57;23.30;;;9.00;1.00;;;;;;6240533;23;20180;-81
2023/03/20 06:17:23;;;;;;;35.10;21.20;;;9.10;1.00;;;;;;6212615;23;20157;-80
2023/03/20 06:19:48;;;;;;;35.03;21.70;;;9.10;1.00;;;;;;6212710;23;20143;-81
2023/03/20 06:22:14;;;;;;;31.83;21.03;;;9.10;1.00;;;;;;6240052;23;20252;-82
2023/03/20 06:24:40;;;;;;;32.83;21.17;;;9.10;1.00;;;;;;6212251;23;20227;-80
2023/03/20 06:27:05;;;;;;;32.73;21.63;;;9.10;1.00;;;;;;6239425;23;20146;-80
2023/03/20 06:29:31;;;;;;;30.97;20.97;;;9.10;1.00;;;;;;6211909;23;20192;-80
2023/03/20 06:31:56;;;;;;;30.77;20.50;;;9.20;1.00;;;;;;6239106;23;20605;-80
2023/03/20 06:34:22;;;;;;;32.30;21.27;;;9.20;1.00;;;;;;6212006;23;20184;-80
2023/03/20 06:36:47;;;;;;;28.57;20.27;;;9.30;1.00;;;;;;6212360;23;20150;-80
2023/03/20 06:39:13;;;;;;;29.20;20.47;;;9.30;1.00;;;;;;6211998;23;20162;-80
2023/03/20 06:41:39;;;;;;;30.17;21.00;;;9.40;1.00;;;;;;6211989;23;20503;-80
2023/03/20 06:44:05;;;;;;;30.03;20.70;;;9.50;1.00;;;;;;6212079;23;20239;-81
2023/03/20 06:46:31;;;;;;;31.73;20.30;;;9.50;1.00;;;;;;6211905;23;20165;-80
2023/03/20 06:48:56;;;;;;;28.27;20.30;;;9.50;1.00;;;;;;6212111;23;20265;-79
2023/03/20 06:51:22;;;;;;;25.70;19.50;;;9.50;1.00;;;;;;6211679;23;20165;-80
2023/03/20 06:53:47;;;;;;;25.40;19.43;;;9.60;1.00;;;;;;6238643;23;20763;-81
2023/03/20 06:56:13;;;;;;;28.50;21.00;;;9.60;1.00;;;;;;6212365;23;20150;-86
2023/03/20 06:58:38;;;;;;;26.43;19.03;;;9.60;99.90;;;;;;6214801;23;20241;-87
2023/03/20 07:01:12;;;;;;;27.80;20.63;;;9.60;99.90;;;;;;6214162;23;20659;-87
2023/03/20 07:03:38;;;;;;;30.30;20.30;;;9.60;99.90;;;;;;6213455;23;20546;-87
2023/03/20 07:06:05;;;;;;;27.07;20.13;;;9.60;99.90;;;;;;6212550;23;20172;-83
2023/03/20 07:08:31;;;;;;;25.33;19.00;;;9.60;99.90;;;;;;6211518;23;20268;-84
2023/03/20 07:11:33;;;;;;;28.03;19.60;;;9.60;99.90;;;;;;6213320;23;20188;-84
2023/03/20 07:14:00;;;;;;;26.67;19.07;;;9.60;99.90;;;;;;6238601;23;20231;-83
2023/03/20 07:16:26;;;;;;;28.73;19.20;;;9.70;99.90;;;;;;6212025;23;20191;-83
2023/03/20 07:18:52;;;;;;;26.77;18.73;;;9.70;99.90;;;;;;6210153;23;20166;-83
2023/03/20 07:21:21;;;;;;;27.87;20.30;;;9.70;99.90;;;;;;6209143;23;20165;-84
2023/03/20 07:23:47;;;;;;;26.90;19.13;;;9.70;99.90;;;;;;6210804;23;20603;-85
2023/03/20 07:26:13;;;;;;;28.57;19.10;;;9.70;99.90;;;;;;6238343;23;20160;-85
2023/03/20 07:28:39;;;;;;;27.37;19.47;;;9.70;99.90;;;;;;6212200;23;20174;-84
2023/03/20 07:31:05;;;;;;;23.97;18.50;;;9.70;99.90;;;;;;6240001;23;20213;-84
2023/03/20 07:33:30;;;;;;;28.47;18.83;;;9.70;99.90;;;;;;6241147;23;20185;-84
2023/03/20 07:35:56;;;;;;;30.80;20.83;;;9.70;99.90;;;;;;6213483;23;20158;-84
2023/03/20 07:38:22;;;;;;;25.97;18.87;;;9.70;99.90;;;;;;6213677;23;20150;-85
2023/03/20 07:40:48;;;;;;;26.92;18.65;;;9.70;99.90;;;;;;6211985;23;20156;-84
2023/03/20 07:43:15;;;;;;;28.07;19.27;;;9.80;99.90;;;;;;6212025;23;20237;-84
2023/03/20 07:45:40;;;;;;;27.30;18.33;;;9.80;99.90;;;;;;6238453;23;20142;-83
2023/03/20 07:48:06;;;;;;;25.80;17.90;;;9.80;99.90;;;;;;6239493;23;20178;-86
2023/03/20 07:50:32;;;;;;;27.50;19.47;;;9.70;99.90;;;;;;6211889;23;20146;-85
2023/03/20 07:52:58;;;;;;;28.53;19.57;;;9.70;99.90;;;;;;6211436;23;20153;-84
2023/03/20 07:55:23;;;;;;;27.07;18.57;;;9.70;99.90;;;;;;6209474;23;20185;-84
2023/03/20 07:57:49;;;;;;;24.83;17.97;;;9.70;99.90;;;;;;6212341;23;20173;-85
2023/03/20 08:00:16;;;;;;;28.48;18.83;;;9.70;99.90;;;;;;6210832;23;20336;-83
2023/03/20 08:02:42;;;;;;;28.57;18.23;;;9.70;99.90;;;;;;6212005;23;20150;-83
2023/03/20 08:05:08;;;;;;;26.97;18.87;;;9.70;99.90;;;;;;6214259;23;20691;-83
2023/03/20 08:07:34;;;;;;;28.27;18.80;;;9.70;99.90;;;;;;6214626;23;20618;-83
2023/03/20 08:10:00;;;;;;;25.90;18.27;;;9.70;99.90;;;;;;6213382;23;20181;-82
2023/03/20 08:12:26;;;;;;;30.63;19.85;;;9.70;99.90;;;;;;6240117;23;20233;-83
2023/03/20 08:14:52;;;;;;;28.20;18.90;;;9.70;99.90;;;;;;6213211;23;20184;-81
2023/03/20 08:17:18;;;;;;;26.38;18.55;;;9.80;99.90;;;;;;6213286;23;20157;-83
2023/03/20 08:19:44;;;;;;;29.40;19.17;;;9.80;99.90;;;;;;6238445;23;20198;-82
2023/03/20 08:22:09;;;;;;;29.30;18.77;;;9.80;99.90;;;;;;6209100;23;20271;-82
2023/03/20 08:24:35;;;;;;;29.05;19.63;;;9.80;99.90;;;;;;6210555;23;20185;-83
2023/03/20 08:27:01;;;;;;;27.30;18.00;;;9.80;99.90;;;;;;6211582;23;20154;-83
2023/03/20 08:29:26;;;;;;;24.75;17.85;;;9.80;99.90;;;;;;6211513;23;20212;-83
2023/03/20 08:31:52;;;;;;;27.43;19.07;;;9.80;99.90;;;;;;6211228;23;20149;-83
2023/03/20 08:34:17;;;;;;;29.27;19.17;;;9.90;99.90;;;;;;6237912;23;20176;-83
2023/03/20 08:36:43;;;;;;;30.10;20.00;;;9.90;99.90;;;;;;6238620;23;20146;-84
2023/03/20 08:39:09;;;;;;;31.13;20.48;;;10.00;99.90;;;;;;6211647;23;20158;-80
2023/03/20 08:41:42;;;;;;;29.97;20.20;;;10.00;99.90;;;;;;6237607;23;20255;-80
2023/03/20 08:44:08;;;;;;;26.13;18.63;;;10.10;99.90;;;;;;6235699;23;20173;-80
2023/03/20 08:46:33;;;;;;;30.23;20.30;;;10.20;99.90;;;;;;6234704;23;20153;-80
2023/03/20 08:48:59;;;;;;;29.27;19.15;;;10.10;99.90;;;;;;6208184;23;20244;-80
2023/03/20 08:51:26;;;;;;;30.00;18.73;;;10.10;99.90;;;;;;6208520;23;20184;-80
2023/03/20 08:53:51;;;;;;;28.80;19.97;;;10.20;99.90;;;;;;6235058;23;20363;-79
2023/03/20 08:56:17;;;;;;;30.80;19.63;;;10.20;99.90;;;;;;6211171;23;20180;-79
2023/03/20 08:58:43;;;;;;;27.63;19.45;;;10.20;99.90;;;;;;6239149;23;20195;-79
2023/03/20 09:01:09;;;;;;;28.30;18.73;;;10.30;99.90;;;;;;6240953;23;20526;-81
2023/03/20 09:03:35;;;;;;;28.48;19.23;;;10.20;99.90;;;;;;6239797;23;20180;-79
2023/03/20 09:06:03;;;;;;;31.20;19.40;;;10.30;99.90;;;;;;6240169;23;20146;-80
2023/03/20 09:08:29;;;;;;;28.97;19.00;;;10.30;99.90;;;;;;6211902;23;20676;-80
2023/03/20 09:10:54;;;;;;;32.85;21.02;;;10.30;99.90;;;;;;6238503;23;20150;-79
2023/03/20 09:13:21;;;;;;;26.55;19.13;;;10.40;99.90;;;;;;6210456;23;20180;-80
2023/03/20 09:15:47;;;;;;;32.50;20.63;;;10.40;99.90;;;;;;6236002;23;20154;-79
2023/03/20 09:18:12;;;;;;;32.78;21.10;;;10.30;99.90;;;;;;6237537;23;20153;-81
2023/03/20 09:20:38;;;;;;;28.80;19.58;;;10.30;99.90;;;;;;6213896;23;20169;-79
2023/03/20 09:23:04;;;;;;;30.13;20.08;;;10.30;99.90;;;;;;6212303;23;20230;-80
2023/03/20 09:25:29;;;;;;;31.45;21.50;;;10.30;99.90;;;;;;6213857;23;20180;-80
2023/03/20 09:27:55;;;;;;;28.52;20.27;;;10.40;99.90;;;;;;6240493;23;20157;-79
2023/03/20 09:30:22;;;;;;;28.92;20.33;;;11.00;99.90;;;;;;6212155;23;20177;-79
2023/03/20 09:32:49;;;;;;;29.60;20.75;;;11.10;99.90;;;;;;6237149;23;20152;-79
2023/03/20 09:35:15;;;;;;;30.48;21.38;;;10.80;99.90;;;;;;6210196;23;20182;-79
2023/03/20 09:37:40;;;;;;;32.13;21.30;;;10.80;99.90;;;;;;6210581;23;20167;-79
2023/03/20 09:40:07;;;;;;;28.70;20.17;;;10.80;99.90;;;;;;6210527;23;20157;-79
2023/03/20 09:43:09;;;;;;;52.33;34.45;;;10.80;99.90;;;;;;6237420;23;20154;-79
2023/03/20 09:45:40;;;;;;;34.13;23.90;;;10.90;99.90;;;;;;6210618;23;20162;-79
2023/03/20 09:48:31;;;;;;;30.35;20.88;;;10.90;99.90;;;;;;6210446;23;20188;-80
2023/03/20 09:51:20;;;;;;;26.00;20.45;;;10.90;99.90;;;;;;6210042;23;20158;-79
2023/03/20 09:53:54;;;;;;;25.38;19.08;;;10.80;99.90;;;;;;6237304;23;20266;-79
2023/03/20 09:56:26;;;;;;;26.33;20.35;;;10.90;99.90;;;;;;6209953;23;20535;-79
2023/03/20 09:58:57;;;;;;;29.45;22.63;;;10.90;99.90;;;;;;6236856;23;20241;-79
2023/03/20 10:01:28;;;;;;;26.45;21.38;;;10.90;99.90;;;;;;6209633;23;20150;-79
2023/03/20 10:04:00;;;;;;;29.48;22.10;;;10.80;99.90;;;;;;6237212;23;20519;-80
2023/03/20 10:06:26;;;;;;;28.63;22.10;;;10.80;99.90;;;;;;6237685;23;20154;-81
2023/03/20 10:08:54;;;;;;;27.80;22.75;;;10.70;99.90;;;;;;6209829;23;20243;-81
2023/03/20 10:11:48;;;;;;;29.35;23.77;;;10.80;98.70;;;;;;6234567;23;20134;-80
2023/03/20 10:14:49;;;;;;;32.42;24.70;;;10.60;93.00;;;;;;6207826;23;20188;-80
2023/03/20 10:17:32;;;;;;;30.33;23.08;;;10.60;99.90;;;;;;6230047;23;20220;-80
2023/03/20 10:20:10;;;;;;;31.88;23.88;;;10.70;99.90;;;;;;6206125;23;20517;-87
2023/03/20 10:22:41;;;;;;;31.30;24.33;;;10.50;95.20;;;;;;6235478;23;20172;-81
2023/03/20 10:25:22;;;;;;;29.10;23.95;;;10.50;99.90;;;;;;6210863;23;20181;-83
2023/03/20 10:28:04;;;;;;;30.25;23.48;;;10.60;99.90;;;;;;6210979;23;20216;-81
2023/03/20 10:30:50;;;;;;;29.80;23.58;;;10.60;93.30;;;;;;6210802;23;20157;-81
2023/03/20 10:33:40;;;;;;;31.20;23.30;;;10.80;91.00;;;;;;6237878;23;20177;-82
2023/03/20 10:36:29;;;;;;;30.52;23.77;;;10.90;59.80;;;;;;6209525;23;20152;-81
2023/03/20 10:39:03;;;;;;;31.67;24.92;;;10.90;67.00;;;;;;6209166;23;20492;-81
2023/03/20 10:41:34;;;;;;;34.85;25.67;;;10.80;72.80;;;;;;6207805;23;20153;-82
2023/03/20 10:44:01;;;;;;;33.83;25.63;;;10.70;70.70;;;;;;6237253;23;20185;-82
2023/03/20 10:46:31;;;;;;;32.78;25.98;;;10.60;64.10;;;;;;6238785;23;20175;-81
2023/03/20 10:49:17;;;;;;;35.90;26.35;;;10.50;88.90;;;;;;6211816;23;20209;-81
2023/03/20 10:51:50;;;;;;;38.28;27.90;;;10.30;99.90;;;;;;6210121;23;20146;-81
2023/03/20 10:54:31;;;;;;;35.50;26.33;;;10.20;99.90;;;;;;6207196;23;20239;-80
2023/03/20 10:56:59;;;;;;;35.58;27.00;;;10.20;99.90;;;;;;6208489;23;20217;-81
2023/03/20 10:59:39;;;;;;;36.28;27.75;;;10.20;97.50;;;;;;6209973;23;20168;-83
2023/03/20 11:02:17;;;;;;;36.15;27.08;;;10.10;99.90;;;;;;6212293;23;20146;-81
2023/03/20 11:04:43;;;;;;;37.67;28.17;;;10.00;99.90;;;;;;6236075;23;20177;-81
2023/03/20 11:07:30;;;;;;;34.17;26.52;;;10.00;99.80;;;;;;6209752;23;20677;-81
2023/03/20 11:10:04;;;;;;;36.10;27.43;;;10.00;91.40;;;;;;6238849;23;20185;-80
2023/03/20 11:12:39;;;;;;;35.95;26.92;;;10.00;99.90;;;;;;6238652;23;20662;-80
2023/03/20 11:15:19;;;;;;;38.58;28.65;;;10.10;97.40;;;;;;6213064;23;20521;-79
2023/03/20 11:18:00;;;;;;;37.38;28.02;;;10.00;95.60;;;;;;6241468;23;20710;-83
2023/03/20 11:20:32;;;;;;;38.10;28.05;;;10.10;99.90;;;;;;6211538;23;20165;-82
2023/03/20 11:23:03;;;;;;;47.35;29.83;;;10.30;98.60;;;;;;6212544;23;20173;-83
2023/03/20 11:25:32;;;;;;;36.75;27.48;;;10.60;85.50;;;;;;6213048;23;20153;-83
2023/03/20 11:28:38;;;;;;;33.90;27.38;;;10.80;46.40;;;;;;6212919;23;20185;-82
2023/03/20 11:31:10;;;;;;;38.05;28.35;;;11.10;60.80;;;;;;6120853;23;20236;-82
2023/03/20 11:33:37;;;;;;;34.33;27.45;;;11.30;46.70;;;;;;6212200;23;20174;-80
2023/03/20 11:36:19;;;;;;;33.80;27.23;;;11.40;30.60;;;;;;6235244;23;20176;-81
2023/03/20 11:38:45;;;;;;;31.77;26.20;;;11.70;22.90;;;;;;6210433;23;20146;-80
2023/03/20 11:41:18;;;;;;;31.92;25.30;;;11.90;15.30;;;;;;6210627;23;20194;-78
2023/03/20 11:43:43;;;;;;;30.40;24.88;;;12.10;3.60;;;;;;6234942;23;20178;-79
2023/03/20 11:46:12;;;;;;;27.50;23.13;;;12.10;1.00;;;;;;6234432;23;20180;-77
2023/03/20 11:48:41;;;;;;;26.15;22.98;;;12.20;1.00;;;;;;6207352;23;20181;-78
2023/03/20 11:51:14;;;;;;;19.55;17.45;;;12.10;1.00;;;;;;6207892;23;20578;-78
2023/03/20 11:53:55;;;;;;;18.67;16.80;;;12.00;1.00;;;;;;6234436;23;20243;-78
2023/03/20 11:56:23;;;;;;;18.20;16.38;;;11.90;1.00;;;;;;6208166;23;20200;-78
2023/03/20 11:59:14;;;;;;;17.73;15.90;;;12.00;1.00;;;;;;6235729;23;20145;-77
2023/03/20 12:01:45;;;;;;;15.75;14.15;;;12.00;1.00;;;;;;6209695;23;20177;-78
2023/03/20 12:04:24;;;;;;;16.02;14.32;;;11.90;1.00;;;;;;6212148;23;20192;-78
2023/03/20 12:07:00;;;;;;;15.35;13.85;;;11.90;1.00;;;;;;6239371;23;20232;-78
2023/03/20 12:10:04;;;;;;;15.10;13.50;;;11.80;1.00;;;;;;6237195;23;20169;-78
2023/03/20 12:12:44;;;;;;;13.43;11.95;;;11.90;1.00;;;;;;6209161;23;20598;-77
2023/03/20 12:15:19;;;;;;;12.80;11.60;;;11.90;1.00;;;;;;6237557;23;20219;-78
2023/03/20 12:18:16;;;;;;;12.00;10.82;;;12.00;1.00;;;;;;6236693;23;20196;-78
2023/03/20 12:21:03;;;;;;;11.13;10.13;;;12.00;1.00;;;;;;6237330;23;20169;-78
2023/03/20 12:23:32;;;;;;;12.32;11.07;;;11.90;1.00;;;;;;6237096;23;20799;-78
2023/03/20 12:26:11;;;;;;;12.27;11.07;;;12.00;1.00;;;;;;6237450;23;20168;-79
2023/03/20 12:28:49;;;;;;;12.65;11.45;;;12.10;1.00;;;;;;6234840;23;20196;-78
2023/03/20 12:31:38;;;;;;;12.57;11.27;;;12.20;1.00;;;;;;6236901;23;20439;-78
2023/03/20 12:34:22;;;;;;;12.20;11.13;;;12.00;1.00;;;;;;6236951;23;20223;-78
2023/03/20 12:36:51;;;;;;;12.63;11.43;;;12.10;1.00;;;;;;6236689;23;20648;-78
2023/03/20 12:39:18;;;;;;;13.43;12.05;;;12.10;1.00;;;;;;6237530;23;20158;-78
2023/03/20 12:42:19;;;;;;;13.98;12.40;;;12.20;1.00;;;;;;6236857;23;20142;-77
2023/03/20 12:45:10;;;;;;;13.73;12.27;;;12.30;1.00;;;;;;6208993;23;20525;-78
2023/03/20 12:47:39;;;;;;;14.60;12.88;;;12.50;1.00;;;;;;6209515;23;20203;-77
2023/03/20 12:50:19;;;;;;;13.15;11.85;;;12.60;1.00;;;;;;6237775;23;20265;-78
2023/03/20 12:52:59;;;;;;;11.70;10.60;;;12.60;1.00;;;;;;6239041;23;20146;-78
2023/03/20 12:55:40;;;;;;;11.98;10.75;;;12.60;1.00;;;;;;6236951;23;20197;-78
2023/03/20 12:58:13;;;;;;;12.30;11.10;;;12.60;1.00;;;;;;6210828;23;20148;-77
2023/03/20 13:00:55;;;;;;;12.23;11.05;;;12.70;1.00;;;;;;6211645;23;20142;-78
2023/03/20 13:03:57;;;;;;;12.32;11.15;;;12.70;1.00;;;;;;6240321;23;20133;-78